sensor_id;sensor_type;location;lat;lon;timestamp;pressure;altitude;pressure_sealevel;temperature;humidity
66627;BME280;53498;50.422;14.912;2022-07-11T00:02:09;99421.31;;;14.19;75.06
66627;BME280;53498;50.422;14.912;2022-07-11T00:04:36;99409.91;;;14.28;75.29
66627;BME280;53498;50.422;14.912;2022-07-11T00:07:02;99409.06;;;14.27;75.19
66627;BME280;53498;50.422;14.912;2022-07-11T00:09:28;99409.00;;;14.29;75.31
66627;BME280;53498;50.422;14.912;2022-07-11T00:11:57;99412.53;;;14.29;74.90
66627;BME280;53498;50.422;14.912;2022-07-11T00:14:23;99408.16;;;14.28;74.77
66627;BME280;53498;50.422;14.912;2022-07-11T00:16:50;99403.00;;;14.19;74.44
66627;BME280;53498;50.422;14.912;2022-07-11T00:19:16;99403.91;;;14.20;75.30
66627;BME280;53498;50.422;14.912;2022-07-11T00:21:42;99400.34;;;14.25;75.62
66627;BME280;53498;50.422;14.912;2022-07-11T00:24:08;99401.22;;;14.26;74.92
66627;BME280;53498;50.422;14.912;2022-07-11T00:26:34;99400.31;;;14.28;75.50
66627;BME280;53498;50.422;14.912;2022-07-11T00:29:00;99393.38;;;14.24;74.86
66627;BME280;53498;50.422;14.912;2022-07-11T00:31:26;99394.25;;;14.22;75.05
66627;BME280;53498;50.422;14.912;2022-07-11T00:33:52;99392.50;;;14.24;74.86
66627;BME280;53498;50.422;14.912;2022-07-11T00:36:17;99397.78;;;14.21;74.86
66627;BME280;53498;50.422;14.912;2022-07-11T00:38:43;99392.56;;;14.18;75.01
66627;BME280;53498;50.422;14.912;2022-07-11T00:41:15;99392.50;;;14.22;74.82
66627;BME280;53498;50.422;14.912;2022-07-11T00:43:42;99389.00;;;14.25;75.50
66627;BME280;53498;50.422;14.912;2022-07-11T00:46:09;99392.50;;;14.24;75.57
66627;BME280;53498;50.422;14.912;2022-07-11T00:48:38;99389.00;;;14.25;75.18
66627;BME280;53498;50.422;14.912;2022-07-11T00:51:04;99389.03;;;14.22;76.23
66627;BME280;53498;50.422;14.912;2022-07-11T00:53:30;99385.63;;;14.17;75.47
66627;BME280;53498;50.422;14.912;2022-07-11T00:55:58;99391.75;;;14.09;76.33
66627;BME280;53498;50.422;14.912;2022-07-11T00:58:25;99396.16;;;14.06;76.07
66627;BME280;53498;50.422;14.912;2022-07-11T01:00:51;99391.84;;;14.02;76.20
66627;BME280;53498;50.422;14.912;2022-07-11T01:03:16;99398.03;;;13.90;75.30
66627;BME280;53498;50.422;14.912;2022-07-11T01:05:42;99398.06;;;13.87;75.30
66627;BME280;53498;50.422;14.912;2022-07-11T01:08:08;99400.66;;;13.92;75.93
66627;BME280;53498;50.422;14.912;2022-07-11T01:10:34;99403.25;;;13.93;75.97
66627;BME280;53498;50.422;14.912;2022-07-11T01:13:00;99400.66;;;13.92;76.42
66627;BME280;53498;50.422;14.912;2022-07-11T01:15:26;99392.75;;;13.98;76.03
66627;BME280;53498;50.422;14.912;2022-07-11T01:17:51;99397.13;;;13.94;76.85
66627;BME280;53498;50.422;14.912;2022-07-11T01:20:21;99400.75;;;13.79;76.15
66627;BME280;53498;50.422;14.912;2022-07-11T01:22:52;99398.13;;;13.81;76.61
66627;BME280;53498;50.422;14.912;2022-07-11T01:25:18;99398.13;;;13.78;76.57
66627;BME280;53498;50.422;14.912;2022-07-11T01:28:03;99398.16;;;13.76;76.74
66627;BME280;53498;50.422;14.912;2022-07-11T01:30:31;99399.97;;;13.67;77.00
66627;BME280;53498;50.422;14.912;2022-07-11T01:32:57;99397.38;;;13.65;77.27
66627;BME280;53498;50.422;14.912;2022-07-11T01:35:24;99402.63;;;13.60;76.93
66627;BME280;53498;50.422;14.912;2022-07-11T01:37:50;99400.03;;;13.57;76.35
66627;BME280;53498;50.422;14.912;2022-07-11T01:40:16;99400.88;;;13.61;76.52
66627;BME280;53498;50.422;14.912;2022-07-11T01:42:42;99396.53;;;13.61;76.74
66627;BME280;53498;50.422;14.912;2022-07-11T01:45:09;99400.91;;;13.58;76.93
66627;BME280;53498;50.422;14.912;2022-07-11T01:47:36;99402.72;;;13.47;77.58
66627;BME280;53498;50.422;14.912;2022-07-11T01:50:02;99400.06;;;13.50;77.09
66627;BME280;53498;50.422;14.912;2022-07-11T01:52:28;99400.13;;;13.43;77.67
66627;BME280;53498;50.422;14.912;2022-07-11T01:54:54;99394.91;;;13.42;77.29
66627;BME280;53498;50.422;14.912;2022-07-11T01:57:19;99400.16;;;13.39;77.09
66627;BME280;53498;50.422;14.912;2022-07-11T01:59:45;99396.75;;;13.25;76.92
66627;BME280;53498;50.422;14.912;2022-07-11T02:02:10;99396.72;;;13.28;76.94
66627;BME280;53498;50.422;14.912;2022-07-11T02:04:36;99395.88;;;13.19;77.23
66627;BME280;53498;50.422;14.912;2022-07-11T02:07:01;99395.00;;;13.16;76.62
66627;BME280;53498;50.422;14.912;2022-07-11T02:09:27;99388.97;;;13.11;76.91
66627;BME280;53498;50.422;14.912;2022-07-11T02:11:52;99387.13;;;13.31;77.44
66627;BME280;53498;50.422;14.912;2022-07-11T02:14:18;99387.97;;;13.36;77.35
66627;BME280;53498;50.422;14.912;2022-07-11T02:16:43;99390.50;;;13.47;77.68
66627;BME280;53498;50.422;14.912;2022-07-11T02:19:09;99387.00;;;13.50;77.38
66627;BME280;53498;50.422;14.912;2022-07-11T02:21:36;99385.25;;;13.50;77.07
66627;BME280;53498;50.422;14.912;2022-07-11T02:24:03;99386.94;;;13.60;76.44
66627;BME280;53498;50.422;14.912;2022-07-11T02:26:28;99398.28;;;13.61;76.48
66627;BME280;53498;50.422;14.912;2022-07-11T02:28:54;99393.06;;;13.53;76.73
66627;BME280;53498;50.422;14.912;2022-07-11T02:31:20;99396.53;;;13.61;77.27
66627;BME280;53498;50.422;14.912;2022-07-11T02:33:52;99399.19;;;13.52;77.16
66627;BME280;53498;50.422;14.912;2022-07-11T02:36:18;99397.41;;;13.59;77.23
66627;BME280;53498;50.422;14.912;2022-07-11T02:38:43;99400.84;;;13.62;78.27
66627;BME280;53498;50.422;14.912;2022-07-11T02:41:09;99390.41;;;13.64;78.02
66627;BME280;53498;50.422;14.912;2022-07-11T02:43:34;99395.66;;;13.59;78.18
66627;BME280;53498;50.422;14.912;2022-07-11T02:46:00;99395.75;;;13.44;77.51
66627;BME280;53498;50.422;14.912;2022-07-11T02:48:26;99393.19;;;13.36;78.77
66627;BME280;53498;50.422;14.912;2022-07-11T02:50:51;99401.91;;;13.34;78.87
66627;BME280;53498;50.422;14.912;2022-07-11T02:53:17;99402.78;;;13.31;78.65
66627;BME280;53498;50.422;14.912;2022-07-11T02:55:43;99393.25;;;13.27;78.88
66627;BME280;53498;50.422;14.912;2022-07-11T02:58:08;99393.22;;;13.24;78.72
66627;BME280;53498;50.422;14.912;2022-07-11T03:00:34;99402.81;;;13.22;79.58
66627;BME280;53498;50.422;14.912;2022-07-11T03:03:00;99398.53;;;13.09;79.03
66627;BME280;53498;50.422;14.912;2022-07-11T03:05:27;99410.69;;;13.14;79.70
66627;BME280;53498;50.422;14.912;2022-07-11T03:07:53;99415.97;;;13.08;79.67
66627;BME280;53498;50.422;14.912;2022-07-11T03:10:18;99410.75;;;13.05;79.24
66627;BME280;53498;50.422;14.912;2022-07-11T03:12:44;99413.38;;;13.01;79.86
66627;BME280;53498;50.422;14.912;2022-07-11T03:15:11;99416.00;;;12.99;79.79
66627;BME280;53498;50.422;14.912;2022-07-11T03:17:36;99420.34;;;13.02;79.54
66627;BME280;53498;50.422;14.912;2022-07-11T03:20:03;99432.59;;;12.86;80.11
66627;BME280;53498;50.422;14.912;2022-07-11T03:22:32;99437.81;;;12.81;80.99
66627;BME280;53498;50.422;14.912;2022-07-11T03:24:58;99435.22;;;12.83;81.12
66627;BME280;53498;50.422;14.912;2022-07-11T03:27:25;99432.59;;;12.83;81.14
66627;BME280;53498;50.422;14.912;2022-07-11T03:29:51;99424.75;;;12.84;80.79
66627;BME280;53498;50.422;14.912;2022-07-11T03:32:16;99429.13;;;12.85;81.01
66627;BME280;53498;50.422;14.912;2022-07-11T03:34:46;99428.22;;;12.88;81.13
66627;BME280;53498;50.422;14.912;2022-07-11T03:37:32;99431.72;;;12.78;81.47
66627;BME280;53498;50.422;14.912;2022-07-11T03:39:57;99433.47;;;12.82;81.95
66627;BME280;53498;50.422;14.912;2022-07-11T03:42:23;99429.13;;;12.81;81.67
66627;BME280;53498;50.422;14.912;2022-07-11T03:44:49;99433.47;;;12.82;81.34
66627;BME280;53498;50.422;14.912;2022-07-11T03:47:17;99424.78;;;12.80;81.32
66627;BME280;53498;50.422;14.912;2022-07-11T03:49:42;99431.75;;;12.71;81.42
66627;BME280;53498;50.422;14.912;2022-07-11T03:52:08;99438.75;;;12.69;82.60
66627;BME280;53498;50.422;14.912;2022-07-11T03:54:33;99436.97;;;12.68;82.35
66627;BME280;53498;50.422;14.912;2022-07-11T03:56:58;99433.50;;;12.71;81.85
66627;BME280;53498;50.422;14.912;2022-07-11T03:59:24;99441.31;;;12.79;82.13
66627;BME280;53498;50.422;14.912;2022-07-11T04:01:49;99438.75;;;12.66;81.72
66627;BME280;53498;50.422;14.912;2022-07-11T04:04:15;99443.06;;;12.69;82.27
66627;BME280;53498;50.422;14.912;2022-07-11T04:06:40;99436.09;;;12.80;81.52
66627;BME280;53498;50.422;14.912;2022-07-11T04:09:10;99444.78;;;12.79;81.87
66627;BME280;53498;50.422;14.912;2022-07-11T04:11:36;99444.78;;;12.78;81.80
66627;BME280;53498;50.422;14.912;2022-07-11T04:14:02;99446.50;;;12.86;81.85
66627;BME280;53498;50.422;14.912;2022-07-11T04:16:27;99447.38;;;12.91;81.20
66627;BME280;53498;50.422;14.912;2022-07-11T04:18:53;99446.44;;;13.03;81.43
66627;BME280;53498;50.422;14.912;2022-07-11T04:21:18;99447.34;;;12.99;80.61
66627;BME280;53498;50.422;14.912;2022-07-11T04:23:44;99442.97;;;13.04;80.68
66627;BME280;53498;50.422;14.912;2022-07-11T04:26:09;99455.13;;;13.11;80.25
66627;BME280;53498;50.422;14.912;2022-07-11T04:28:35;99448.13;;;13.23;79.58
66627;BME280;53498;50.422;14.912;2022-07-11T04:31:00;99447.25;;;13.17;79.59
66627;BME280;53498;50.422;14.912;2022-07-11T04:33:29;99455.09;;;13.16;79.87
66627;BME280;53498;50.422;14.912;2022-07-11T04:35:55;99454.19;;;13.31;80.02
66627;BME280;53498;50.422;14.912;2022-07-11T04:38:20;99449.81;;;13.36;79.77
66627;BME280;53498;50.422;14.912;2022-07-11T04:40:50;99443.72;;;13.34;79.79
66627;BME280;53498;50.422;14.912;2022-07-11T04:43:16;99445.41;;;13.44;79.16
66627;BME280;53498;50.422;14.912;2022-07-11T04:45:42;99450.56;;;13.53;79.19
66627;BME280;53498;50.422;14.912;2022-07-11T04:48:07;99447.03;;;13.67;78.42
66627;BME280;53498;50.422;14.912;2022-07-11T04:50:33;99449.59;;;13.71;77.78
66627;BME280;53498;50.422;14.912;2022-07-11T04:52:59;99453.88;;;13.86;78.11
66627;BME280;53498;50.422;14.912;2022-07-11T04:55:24;99450.22;;;14.04;75.90
66627;BME280;53498;50.422;14.912;2022-07-11T04:57:50;99446.66;;;14.16;75.75
66627;BME280;53498;50.422;14.912;2022-07-11T05:00:16;99450.09;;;14.24;75.42
66627;BME280;53498;50.422;14.912;2022-07-11T05:02:42;99455.19;;;14.39;74.95
66627;BME280;53498;50.422;14.912;2022-07-11T05:05:07;99449.00;;;14.48;73.70
66627;BME280;53498;50.422;14.912;2022-07-11T05:07:33;99454.97;;;14.64;73.01
66627;BME280;53498;50.422;14.912;2022-07-11T05:10:03;99446.06;;;14.80;72.75
66627;BME280;53498;50.422;14.912;2022-07-11T05:12:28;99445.22;;;14.79;71.95
66627;BME280;53498;50.422;14.912;2022-07-11T05:14:54;99451.25;;;14.86;72.18
66627;BME280;53498;50.422;14.912;2022-07-11T05:17:21;99457.88;;;15.15;70.91
66627;BME280;53498;50.422;14.912;2022-07-11T05:19:48;99451.56;;;15.31;71.42
66627;BME280;53498;50.422;14.912;2022-07-11T05:22:14;99458.44;;;15.38;69.99
66627;BME280;53498;50.422;14.912;2022-07-11T05:24:39;99464.38;;;15.51;70.48
66627;BME280;53498;50.422;14.912;2022-07-11T05:27:05;99456.50;;;15.53;70.41
66627;BME280;53498;50.422;14.912;2022-07-11T05:29:30;99454.53;;;15.71;69.51
66627;BME280;53498;50.422;14.912;2022-07-11T05:31:56;99460.81;;;15.57;69.54
66627;BME280;53498;50.422;14.912;2022-07-11T05:34:22;99463.06;;;15.19;70.85
66627;BME280;53498;50.422;14.912;2022-07-11T05:36:47;99462.25;;;15.13;70.20
66627;BME280;53498;50.422;14.912;2022-07-11T05:39:13;99463.19;;;15.07;71.20
66627;BME280;53498;50.422;14.912;2022-07-11T05:41:38;99466.69;;;15.09;70.53
66627;BME280;53498;50.422;14.912;2022-07-11T05:44:04;99464.63;;;15.34;68.47
66627;BME280;53498;50.422;14.912;2022-07-11T05:46:29;99458.44;;;15.40;67.20
66627;BME280;53498;50.422;14.912;2022-07-11T05:48:55;99473.38;;;15.33;67.44
66627;BME280;53498;50.422;14.912;2022-07-11T05:51:20;99468.06;;;15.39;66.29
66627;BME280;53498;50.422;14.912;2022-07-11T05:53:46;99470.34;;;15.62;66.07
66627;BME280;53498;50.422;14.912;2022-07-11T05:56:11;99465.94;;;15.69;65.78
66627;BME280;53498;50.422;14.912;2022-07-11T05:58:37;99470.47;;;16.13;65.52
66627;BME280;53498;50.422;14.912;2022-07-11T06:01:02;99472.28;;;16.64;63.78
66627;BME280;53498;50.422;14.912;2022-07-11T06:03:29;99465.47;;;17.00;62.07
66627;BME280;53498;50.422;14.912;2022-07-11T06:05:54;99470.59;;;17.50;59.77
66627;BME280;53498;50.422;14.912;2022-07-11T06:08:23;99474.16;;;17.88;58.75
66627;BME280;53498;50.422;14.912;2022-07-11T06:11:12;99471.81;;;18.11;57.02
66627;BME280;53498;50.422;14.912;2022-07-11T06:13:43;99468.44;;;18.06;55.96
66627;BME280;53498;50.422;14.912;2022-07-11T06:16:14;99471.53;;;19.23;54.68
66627;BME280;53498;50.422;14.912;2022-07-11T06:18:39;99462.72;;;21.13;48.23
66627;BME280;53498;50.422;14.912;2022-07-11T06:21:05;99470.25;;;21.93;45.07
66627;BME280;53498;50.422;14.912;2022-07-11T06:23:31;99474.13;;;21.15;45.90
66627;BME280;53498;50.422;14.912;2022-07-11T06:25:57;99481.47;;;20.57;47.74
66627;BME280;53498;50.422;14.912;2022-07-11T06:28:29;99474.16;;;21.62;45.57
66627;BME280;53498;50.422;14.912;2022-07-11T06:30:56;99466.81;;;21.45;45.11
66627;BME280;53498;50.422;14.912;2022-07-11T06:33:25;99473.41;;;22.03;43.99
66627;BME280;53498;50.422;14.912;2022-07-11T06:35:51;99480.03;;;22.57;43.30
66627;BME280;53498;50.422;14.912;2022-07-11T06:38:17;99475.81;;;22.09;43.76
66627;BME280;53498;50.422;14.912;2022-07-11T06:40:42;99476.59;;;21.67;43.91
66627;BME280;53498;50.422;14.912;2022-07-11T06:43:17;99482.69;;;20.45;46.61
66627;BME280;53498;50.422;14.912;2022-07-11T06:45:43;99492.03;;;19.13;49.72
66627;BME280;53498;50.422;14.912;2022-07-11T06:48:09;99490.19;;;17.75;54.01
66627;BME280;53498;50.422;14.912;2022-07-11T06:50:34;99490.06;;;17.83;55.61
66627;BME280;53498;50.422;14.912;2022-07-11T06:53:02;99488.38;;;17.37;55.33
66627;BME280;53498;50.422;14.912;2022-07-11T06:55:28;99493.22;;;17.15;57.67
66627;BME280;53498;50.422;14.912;2022-07-11T06:57:53;99489.00;;;17.48;55.65
66627;BME280;53498;50.422;14.912;2022-07-11T07:00:19;99490.59;;;17.57;56.24
66627;BME280;53498;50.422;14.912;2022-07-11T07:02:45;99494.66;;;17.70;55.65
66627;BME280;53498;50.422;14.912;2022-07-11T07:05:10;99499.28;;;17.61;54.59
66627;BME280;53498;50.422;14.912;2022-07-11T07:07:36;99496.34;;;18.13;53.42
66627;BME280;53498;50.422;14.912;2022-07-11T07:10:02;99508.53;;;18.17;53.50
66627;BME280;53498;50.422;14.912;2022-07-11T07:12:28;99495.16;;;18.62;53.08
66627;BME280;53498;50.422;14.912;2022-07-11T07:14:54;99500.03;;;18.06;53.62
66627;BME280;53498;50.422;14.912;2022-07-11T07:17:19;99510.53;;;16.80;56.84
66627;BME280;53498;50.422;14.912;2022-07-11T07:19:45;99511.19;;;16.40;58.79
66627;BME280;53498;50.422;14.912;2022-07-11T07:22:11;99510.56;;;16.23;59.62
66627;BME280;53498;50.422;14.912;2022-07-11T07:24:39;99507.91;;;16.28;60.39
66627;BME280;53498;50.422;14.912;2022-07-11T07:27:05;99508.31;;;16.02;61.29
66627;BME280;53498;50.422;14.912;2022-07-11T07:29:31;99515.16;;;16.12;61.45
66627;BME280;53498;50.422;14.912;2022-07-11T07:31:58;99509.28;;;15.94;61.11
66627;BME280;53498;50.422;14.912;2022-07-11T07:34:28;99504.06;;;15.91;61.99
66627;BME280;53498;50.422;14.912;2022-07-11T07:36:53;99508.31;;;16.02;61.94
66627;BME280;53498;50.422;14.912;2022-07-11T07:39:19;99514.81;;;16.33;61.29
66627;BME280;53498;50.422;14.912;2022-07-11T07:41:44;99508.22;;;16.60;59.74
66627;BME280;53498;50.422;14.912;2022-07-11T07:44:10;99509.00;;;16.65;58.59
66627;BME280;53498;50.422;14.912;2022-07-11T07:46:36;99511.88;;;17.01;59.32
66627;BME280;53498;50.422;14.912;2022-07-11T07:49:02;99502.53;;;17.31;58.43
66627;BME280;53498;50.422;14.912;2022-07-11T07:51:31;99513.69;;;17.43;57.52
66627;BME280;53498;50.422;14.912;2022-07-11T07:53:57;99520.38;;;17.14;54.83
66627;BME280;53498;50.422;14.912;2022-07-11T07:56:23;99526.19;;;16.85;55.83
66627;BME280;53498;50.422;14.912;2022-07-11T07:58:49;99532.50;;;16.75;56.18
66627;BME280;53498;50.422;14.912;2022-07-11T08:01:17;99529.84;;;16.78;55.84
66627;BME280;53498;50.422;14.912;2022-07-11T08:04:05;99532.59;;;16.67;55.98
66627;BME280;53498;50.422;14.912;2022-07-11T08:06:32;99532.50;;;16.75;56.45
66627;BME280;53498;50.422;14.912;2022-07-11T08:08:58;99537.00;;;16.68;55.43
66627;BME280;53498;50.422;14.912;2022-07-11T08:11:25;99530.97;;;16.60;55.13
66627;BME280;53498;50.422;14.912;2022-07-11T08:13:51;99527.22;;;16.76;54.93
66627;BME280;53498;50.422;14.912;2022-07-11T08:16:17;99526.59;;;17.10;54.04
66627;BME280;53498;50.422;14.912;2022-07-11T08:18:43;99523.06;;;17.13;53.14
66627;BME280;53498;50.422;14.912;2022-07-11T08:21:08;99522.16;;;17.57;52.03
66627;BME280;53498;50.422;14.912;2022-07-11T08:23:35;99520.03;;;18.15;50.67
66627;BME280;53498;50.422;14.912;2022-07-11T08:26:00;99521.63;;;18.20;49.91
66627;BME280;53498;50.422;14.912;2022-07-11T08:28:26;99519.00;;;17.83;50.48
66627;BME280;53498;50.422;14.912;2022-07-11T08:30:51;99516.88;;;17.57;51.60
66627;BME280;53498;50.422;14.912;2022-07-11T08:33:20;99518.06;;;17.42;51.72
66627;BME280;53498;50.422;14.912;2022-07-11T08:35:45;99507.16;;;18.01;51.81
66627;BME280;53498;50.422;14.912;2022-07-11T08:38:11;99509.53;;;18.49;51.58
66627;BME280;53498;50.422;14.912;2022-07-11T08:40:38;99502.91;;;18.33;50.03
66627;BME280;53498;50.422;14.912;2022-07-11T08:43:13;99498.81;;;18.91;49.15
66627;BME280;53498;50.422;14.912;2022-07-11T08:45:39;99499.16;;;19.71;48.17
66627;BME280;53498;50.422;14.912;2022-07-11T08:48:05;99494.88;;;19.96;46.14
66627;BME280;53498;50.422;14.912;2022-07-11T08:50:31;99501.34;;;18.94;45.65
66627;BME280;53498;50.422;14.912;2022-07-11T08:52:58;99496.16;;;19.53;46.59
66627;BME280;53498;50.422;14.912;2022-07-11T08:55:24;99498.88;;;19.50;45.83
66627;BME280;53498;50.422;14.912;2022-07-11T08:57:50;99498.13;;;18.83;46.39
66627;BME280;53498;50.422;14.912;2022-07-11T09:00:16;99499.56;;;18.62;46.14
66627;BME280;53498;50.422;14.912;2022-07-11T09:02:42;99496.97;;;18.24;47.70
66627;BME280;53498;50.422;14.912;2022-07-11T09:05:09;99497.03;;;18.21;49.03
66627;BME280;53498;50.422;14.912;2022-07-11T09:07:42;99496.22;;;18.19;50.99
66627;BME280;53498;50.422;14.912;2022-07-11T09:10:08;99495.72;;;18.39;50.63
66627;BME280;53498;50.422;14.912;2022-07-11T09:12:34;99498.84;;;18.55;48.46
66627;BME280;53498;50.422;14.912;2022-07-11T09:14:59;99491.59;;;18.63;49.57
66627;BME280;53498;50.422;14.912;2022-07-11T09:17:29;99489.88;;;18.62;47.69
66627;BME280;53498;50.422;14.912;2022-07-11T09:19:58;99488.84;;;19.02;47.01
66627;BME280;53498;50.422;14.912;2022-07-11T09:22:23;99494.97;;;18.68;47.26
66627;BME280;53498;50.422;14.912;2022-07-11T09:25:09;99488.38;;;18.52;48.79
66627;BME280;53498;50.422;14.912;2022-07-11T09:28:02;99483.13;;;18.52;47.98
66627;BME280;53498;50.422;14.912;2022-07-11T09:30:37;99493.22;;;19.02;46.83
66627;BME280;53498;50.422;14.912;2022-07-11T09:33:12;99484.06;;;19.76;45.32
66627;BME280;53498;50.422;14.912;2022-07-11T09:35:42;99480.69;;;19.41;43.31
66627;BME280;53498;50.422;14.912;2022-07-11T09:38:13;99490.31;;;19.12;43.98
66627;BME280;53498;50.422;14.912;2022-07-11T09:40:45;99486.97;;;19.37;44.75
66627;BME280;53498;50.422;14.912;2022-07-11T09:43:11;99482.41;;;19.11;43.75
66627;BME280;53498;50.422;14.912;2022-07-11T09:45:37;99484.06;;;18.84;45.40
66627;BME280;53498;50.422;14.912;2022-07-11T09:48:10;99476.84;;;18.90;43.77
66627;BME280;53498;50.422;14.912;2022-07-11T09:50:36;99479.34;;;18.95;44.88
66627;BME280;53498;50.422;14.912;2022-07-11T09:55:31;99476.78;;;19.84;43.66
66627;BME280;53498;50.422;14.912;2022-07-11T09:57:57;99477.69;;;20.38;44.00
66627;BME280;53498;50.422;14.912;2022-07-11T10:00:23;99471.59;;;19.81;43.70
66627;BME280;53498;50.422;14.912;2022-07-11T10:02:51;99478.91;;;19.12;45.55
66627;BME280;53498;50.422;14.912;2022-07-11T10:05:17;99476.31;;;18.78;45.29
66627;BME280;53498;50.422;14.912;2022-07-11T10:07:43;99472.97;;;18.69;45.93
66627;BME280;53498;50.422;14.912;2022-07-11T10:10:09;99466.19;;;18.26;46.58
66627;BME280;53498;50.422;14.912;2022-07-11T10:12:36;99477.28;;;18.73;47.63
66627;BME280;53498;50.422;14.912;2022-07-11T10:15:05;99462.16;;;19.42;46.44
66627;BME280;53498;50.422;14.912;2022-07-11T10:23:40;99459.06;;;19.87;43.76
66627;BME280;53498;50.422;14.912;2022-07-11T10:29:02;99462.19;;;20.00;41.88
66627;BME280;53498;50.422;14.912;2022-07-11T10:31:30;99457.69;;;20.02;42.38
66627;BME280;53498;50.422;14.912;2022-07-11T10:34:04;99463.06;;;19.99;42.60
66627;BME280;53498;50.422;14.912;2022-07-11T10:36:32;99453.41;;;20.00;42.26
66627;BME280;53498;50.422;14.912;2022-07-11T10:41:59;99457.84;;;19.10;42.81
66627;BME280;53498;50.422;14.912;2022-07-11T10:44:27;99454.44;;;19.36;43.97
66627;BME280;53498;50.422;14.912;2022-07-11T10:46:53;99467.47;;;19.11;41.73
66627;BME280;53498;50.422;14.912;2022-07-11T10:52:06;99471.78;;;19.14;42.38
66627;BME280;53498;50.422;14.912;2022-07-11T10:57:28;99460.47;;;20.26;41.06
66627;BME280;53498;50.422;14.912;2022-07-11T11:02:29;99457.28;;;19.88;40.54
66627;BME280;53498;50.422;14.912;2022-07-11T11:04:59;99465.03;;;19.64;40.14
66627;BME280;53498;50.422;14.912;2022-07-11T11:07:38;99464.03;;;19.39;40.15
66627;BME280;53498;50.422;14.912;2022-07-11T11:15:52;99462.38;;;19.66;41.08
66627;BME280;53498;50.422;14.912;2022-07-11T11:23:42;99465.50;;;19.49;40.95
66627;BME280;53498;50.422;14.912;2022-07-11T11:26:12;99462.88;;;19.49;40.26
66627;BME280;53498;50.422;14.912;2022-07-11T11:28:54;99466.78;;;19.94;39.76
66627;BME280;53498;50.422;14.912;2022-07-11T11:31:20;99456.53;;;19.84;39.74
66627;BME280;53498;50.422;14.912;2022-07-11T11:33:46;99458.59;;;19.75;39.50
66627;BME280;53498;50.422;14.912;2022-07-11T11:36:15;99460.75;;;20.17;39.20
66627;BME280;53498;50.422;14.912;2022-07-11T11:38:42;99460.97;;;20.89;40.75
66627;BME280;53498;50.422;14.912;2022-07-11T11:41:09;99452.66;;;21.70;39.54
66627;BME280;53498;50.422;14.912;2022-07-11T11:43:36;99459.78;;;21.21;37.34
66627;BME280;53498;50.422;14.912;2022-07-11T11:46:03;99460.72;;;21.20;37.13
66627;BME280;53498;50.422;14.912;2022-07-11T11:48:34;99469.16;;;21.30;38.60
66627;BME280;53498;50.422;14.912;2022-07-11T11:51:10;99462.19;;;21.74;38.24
66627;BME280;53498;50.422;14.912;2022-07-11T11:53:49;99454.59;;;22.09;39.00
66627;BME280;53498;50.422;14.912;2022-07-11T11:56:20;99448.91;;;22.20;34.75
66627;BME280;53498;50.422;14.912;2022-07-11T11:58:48;99453.09;;;22.03;35.89
66627;BME280;53498;50.422;14.912;2022-07-11T12:01:20;99445.06;;;21.83;36.19
66627;BME280;53498;50.422;14.912;2022-07-11T12:03:47;99464.31;;;21.17;37.54
66627;BME280;53498;50.422;14.912;2022-07-11T12:06:14;99457.97;;;21.46;39.50
66627;BME280;53498;50.422;14.912;2022-07-11T12:08:39;99458.28;;;21.84;36.84
66627;BME280;53498;50.422;14.912;2022-07-11T12:11:05;99458.56;;;21.99;37.34
66627;BME280;53498;50.422;14.912;2022-07-11T12:13:31;99447.00;;;21.56;36.96
66627;BME280;53498;50.422;14.912;2022-07-11T12:15:56;99450.31;;;21.84;38.55
66627;BME280;53498;50.422;14.912;2022-07-11T12:18:45;99452.97;;;22.28;35.56
66627;BME280;53498;50.422;14.912;2022-07-11T12:21:14;99457.81;;;21.73;35.85
66627;BME280;53498;50.422;14.912;2022-07-11T12:23:47;99454.06;;;21.57;38.27
66627;BME280;53498;50.422;14.912;2022-07-11T12:26:13;99464.25;;;20.95;36.32
66627;BME280;53498;50.422;14.912;2022-07-11T12:34:23;99452.44;;;20.55;35.95
66627;BME280;53498;50.422;14.912;2022-07-11T12:37:10;99450.81;;;20.76;36.64
66627;BME280;53498;50.422;14.912;2022-07-11T12:40:00;99447.69;;;20.90;38.28
66627;BME280;53498;50.422;14.912;2022-07-11T12:42:35;99444.06;;;21.41;38.03
66627;BME280;53498;50.422;14.912;2022-07-11T12:47:39;99451.66;;;21.73;37.26
66627;BME280;53498;50.422;14.912;2022-07-11T12:50:20;99448.16;;;21.01;35.50
66627;BME280;53498;50.422;14.912;2022-07-11T12:52:48;99444.56;;;20.79;38.13
66627;BME280;53498;50.422;14.912;2022-07-11T12:55:25;99444.81;;;20.96;37.04
66627;BME280;53498;50.422;14.912;2022-07-11T13:00:29;99433.16;;;21.25;37.65
66627;BME280;53498;50.422;14.912;2022-07-11T13:02:55;99448.66;;;20.88;36.96
66627;BME280;53498;50.422;14.912;2022-07-11T13:05:21;99447.53;;;20.95;38.61
66627;BME280;53498;50.422;14.912;2022-07-11T13:07:46;99443.66;;;21.27;36.17
66627;BME280;53498;50.422;14.912;2022-07-11T13:10:31;99444.59;;;21.73;38.84
66627;BME280;53498;50.422;14.912;2022-07-11T13:13:18;99441.13;;;21.24;34.45
66627;BME280;53498;50.422;14.912;2022-07-11T13:15:45;99448.78;;;20.85;33.17
66627;BME280;53498;50.422;14.912;2022-07-11T13:18:16;99438.06;;;21.13;35.06
66627;BME280;53498;50.422;14.912;2022-07-11T13:20:41;99438.50;;;21.24;35.15
66627;BME280;53498;50.422;14.912;2022-07-11T13:23:07;99435.22;;;21.17;35.12
66627;BME280;53498;50.422;14.912;2022-07-11T13:25:34;99437.25;;;21.34;35.79
66627;BME280;53498;50.422;14.912;2022-07-11T13:28:00;99440.16;;;21.95;37.98
66627;BME280;53498;50.422;14.912;2022-07-11T13:30:26;99427.94;;;22.35;35.45
66627;BME280;53498;50.422;14.912;2022-07-11T13:32:57;99428.06;;;22.10;33.83
66627;BME280;53498;50.422;14.912;2022-07-11T13:35:23;99427.63;;;21.77;33.93
66627;BME280;53498;50.422;14.912;2022-07-11T13:37:49;99421.44;;;21.78;35.87